Time;durP1;ratioP1;P1;durP2;ratioP2;P2;SDS_P1;SDS_P2;PMS_P1;PMS_P2;Temp;Humidity;BMP_temperature;BMP_pressure;BME280_temperature;BME280_humidity;BME280_pressure;Samples;Min_cycle;Max_cycle;Signal;HPM_P1;HPM_P2
2023/01/17 00:16:05;;;;;;;38.50;21.10;;;;;;;2.72;88.65;95875.91;435223;1253;98037;-40
2023/01/17 00:26:13;;;;;;;53.00;29.00;;;;;;;2.66;88.77;95868.09;435396;1256;107874;-40
2023/01/17 01:38:35;;;;;;;35.40;19.70;;;;;;;2.82;89.13;95849.96;435245;1256;99313;-40
2023/01/17 01:48:40;;;;;;;34.80;20.90;;;;;;;2.80;89.50;95848.05;435396;1256;108114;-39
2023/01/17 01:58:51;;;;;;;26.10;16.60;;;;;;;2.81;89.31;95858.40;435192;1254;98933;-39
2023/01/17 02:08:56;;;;;;;30.20;18.90;;;;;;;2.76;89.18;95860.71;435261;1253;111760;-39
2023/01/17 02:19:05;;;;;;;27.30;16.70;;;;;;;2.69;89.43;95856.12;435295;1253;108202;-39
2023/01/17 02:29:38;;;;;;;22.20;13.60;;;;;;;2.78;89.66;95862.60;435278;1256;99231;-39
2023/01/17 02:39:48;;;;;;;16.60;9.50;;;;;;;2.92;89.58;95851.83;435209;1256;110038;-41
2023/01/17 02:50:02;;;;;;;12.30;7.20;;;;;;;2.93;89.48;95843.38;436057;1252;99228;-40
2023/01/17 03:00:15;;;;;;;10.10;5.90;;;;;;;2.74;89.24;95842.38;434992;1256;386194;-39
2023/01/17 03:10:24;;;;;;;9.00;5.90;;;;;;;2.63;88.81;95831.17;435207;1251;110656;-39
2023/01/17 03:20:31;;;;;;;7.80;4.70;;;;;;;2.53;88.71;95837.76;435193;1256;99222;-41
2023/01/17 03:30:39;;;;;;;7.70;5.50;;;;;;;2.39;88.67;95842.89;435193;1256;111932;-40
2023/01/17 03:40:46;;;;;;;15.60;6.30;;;;;;;2.19;88.50;95840.42;435271;1256;99262;-39
2023/01/17 03:50:53;;;;;;;8.90;4.20;;;;;;;2.01;88.16;95835.39;435304;1251;112587;-40
2023/01/17 04:01:01;;;;;;;6.30;4.00;;;;;;;1.95;88.10;95850.85;435090;1251;110950;-41
2023/01/17 04:11:08;;;;;;;7.10;4.20;;;;;;;1.86;88.03;95872.52;435205;1251;99339;-39
2023/01/17 04:21:15;;;;;;;11.70;6.50;;;;;;;1.70;88.11;95883.84;435316;1256;108581;-41
2023/01/17 04:31:22;;;;;;;11.00;6.80;;;;;;;1.58;88.27;95890.75;435301;1255;98452;-40
2023/01/17 04:41:30;;;;;;;8.60;5.40;;;;;;;1.56;88.05;95889.25;435285;1253;111815;-40
2023/01/17 04:51:37;;;;;;;8.20;5.10;;;;;;;1.63;88.10;95902.70;435298;1256;107351;-39
2023/01/17 05:01:44;;;;;;;7.50;4.60;;;;;;;1.73;88.17;95904.73;435099;1256;98526;-39
2023/01/17 05:11:52;;;;;;;9.80;6.10;;;;;;;1.72;88.20;95916.63;435194;1256;107401;-39
2023/01/17 05:32:06;;;;;;;8.30;5.20;;;;;;;1.56;88.01;95925.56;435365;1252;111195;-38
2023/01/17 05:42:14;;;;;;;6.50;4.20;;;;;;;1.58;87.89;95923.92;435177;1253;108016;-39
2023/01/17 05:52:21;;;;;;;8.20;4.80;;;;;;;1.57;87.93;95935.42;435352;1253;99603;-39
2023/01/17 06:02:28;;;;;;;13.10;7.90;;;;;;;1.55;88.13;95930.95;435334;1254;108713;-40
2023/01/17 06:12:35;;;;;;;19.00;8.40;;;;;;;1.48;88.12;95941.08;435186;1253;98831;-40
2023/01/17 06:22:43;;;;;;;7.50;5.60;;;;;;;1.42;88.02;95945.94;435190;1256;112123;-40
2023/01/17 06:32:52;;;;;;;12.20;6.90;;;;;;;1.46;87.95;95944.43;435228;1253;106464;-41
2023/01/17 06:42:59;;;;;;;11.70;7.10;;;;;;;1.51;87.87;95948.98;435234;1253;99240;-40
2023/01/17 06:53:08;;;;;;;14.10;7.50;;;;;;;1.55;87.88;95958.15;435177;1256;107895;-40
2023/01/17 07:03:16;;;;;;;27.70;13.70;;;;;;;1.60;88.02;95965.93;435225;1256;99211;-41
2023/01/17 07:13:23;;;;;;;19.70;9.70;;;;;;;1.58;87.86;95960.90;435272;1256;110073;-40
2023/01/17 07:23:30;;;;;;;19.80;9.30;;;;;;;1.63;87.90;95973.59;435121;1256;108417;-41
2023/01/17 07:33:37;;;;;;;14.40;7.80;;;;;;;1.76;87.82;95980.83;435199;1253;99234;-41
2023/01/17 07:43:44;;;;;;;11.30;7.30;;;;;;;1.94;87.85;95981.59;435154;1256;107888;-40
2023/01/17 07:53:51;;;;;;;19.40;9.90;;;;;;;2.04;87.86;95989.35;435220;1256;99269;-41
2023/01/17 08:03:59;;;;;;;18.50;10.70;;;;;;;2.09;87.85;95979.23;435238;1256;111725;-40
2023/01/17 08:14:06;;;;;;;14.20;8.60;;;;;;;2.12;87.92;95975.91;435189;1256;108175;-41
2023/01/17 08:24:12;;;;;;;26.80;11.10;;;;;;;2.25;87.63;95985.20;435213;1256;98497;-40
2023/01/17 08:34:19;;;;;;;9.50;6.50;;;;;;;2.39;87.63;95998.58;435252;1253;111978;-41
2023/01/17 08:44:26;;;;;;;14.50;8.50;;;;;;;2.51;87.67;96004.98;435218;1256;106515;-40
2023/01/17 08:54:34;;;;;;;14.10;7.80;;;;;;;2.53;87.53;96017.88;435150;1255;98011;-41
2023/01/17 09:04:43;;;;;;;11.50;6.40;;;;;;;2.59;87.32;96023.85;435156;1253;112214;-39
2023/01/17 09:14:50;;;;;;;7.80;6.20;;;;;;;2.74;87.17;96024.30;435290;1254;108558;-42
2023/01/17 09:24:58;;;;;;;18.80;10.30;;;;;;;2.89;87.24;96034.77;435220;1256;99103;-40
2023/01/17 09:35:07;;;;;;;18.60;10.00;;;;;;;2.97;87.22;96043.77;435348;1255;111392;-39
2023/01/17 09:45:16;;;;;;;19.00;10.60;;;;;;;3.04;87.08;96033.41;435332;1254;109597;-42
2023/01/17 09:55:23;;;;;;;9.20;6.70;;;;;;;3.28;86.92;96033.12;435075;1257;99685;-41
2023/01/17 10:05:39;;;;;;;10.80;5.90;;;;;;;3.64;86.68;96034.80;435095;1259;107767;-40
2023/01/17 10:15:50;;;;;;;17.70;10.20;;;;;;;3.85;86.65;96042.83;435147;1256;98033;-40
2023/01/17 10:25:58;;;;;;;13.30;8.30;;;;;;;4.04;86.44;96046.52;435194;1253;111213;-40
2023/01/17 10:36:09;;;;;;;15.60;8.40;;;;;;;4.37;86.32;96031.98;435056;1259;109587;-41
2023/01/17 10:46:15;;;;;;;12.30;5.90;;;;;;;4.72;85.92;96029.53;435055;1257;98820;-39
2023/01/17 10:56:28;;;;;;;12.20;7.20;;;;;;;5.09;85.67;96032.27;435352;1256;112274;-40
2023/01/17 11:06:37;;;;;;;10.80;6.30;;;;;;;5.42;85.48;96031.77;435183;1256;107227;-40
2023/01/17 11:17:01;;;;;;;10.30;5.90;;;;;;;5.50;84.77;96032.52;435242;1253;99224;-39
2023/01/17 11:27:23;;;;;;;8.90;5.20;;;;;;;5.59;84.41;96037.77;435275;1256;111519;-40
2023/01/17 11:37:30;;;;;;;8.10;3.80;;;;;;;5.72;83.73;96044.34;435145;1256;107843;-40
2023/01/17 11:47:37;;;;;;;8.10;4.30;;;;;;;5.84;82.82;96032.48;435487;1255;99230;-44
2023/01/17 12:07:55;;;;;;;7.10;4.10;;;;;;;5.86;81.98;96016.54;435244;1257;98732;-39
2023/01/17 12:18:07;;;;;;;7.20;3.50;;;;;;;5.89;81.55;96012.08;435265;1255;110788;-40
2023/01/17 12:28:26;;;;;;;7.20;4.00;;;;;;;5.89;80.82;96016.55;435160;1256;108019;-40
2023/01/17 12:38:38;;;;;;;2.70;2.50;;;;;;;5.89;79.76;96005.11;435199;1256;99284;-40
2023/01/17 13:09:04;;;;;;;7.20;4.80;;;;;;;5.79;78.67;96030.77;435291;1256;98004;-42
2023/01/17 13:19:11;;;;;;;7.70;4.80;;;;;;;5.64;78.31;96051.88;435308;1256;112468;-40
2023/01/17 13:29:25;;;;;;;10.00;5.70;;;;;;;5.44;78.36;96051.27;435243;1254;107612;-40
2023/01/17 13:39:40;;;;;;;13.20;6.50;;;;;;;5.30;78.27;96056.13;435239;1257;98011;-41
2023/01/17 13:49:46;;;;;;;9.30;5.70;;;;;;;5.17;77.89;96063.73;435216;1257;112934;-39
2023/01/17 13:59:55;;;;;;;6.10;4.20;;;;;;;5.19;77.65;96069.91;435306;1254;106660;-39
2023/01/17 14:10:15;;;;;;;13.70;6.20;;;;;;;5.15;77.65;96086.30;435195;1255;99286;-40
2023/01/17 14:30:59;;;;;;;14.20;9.10;;;;;;;4.74;76.92;96147.86;435797;1258;107611;-40
2023/01/17 14:51:12;;;;;;;27.70;12.50;;;;;;;4.27;77.13;96207.65;435172;1254;111798;-41
2023/01/17 15:01:20;;;;;;;25.10;12.50;;;;;;;4.03;77.16;96221.66;435012;1258;447623;-41
2023/01/17 15:21:39;;;;;;;33.00;15.90;;;;;;;3.60;77.25;96220.67;435225;1257;111490;-42
2023/01/17 15:31:49;;;;;;;61.40;27.60;;;;;;;3.48;77.29;96224.11;435194;1253;108556;-40
2023/01/17 15:41:57;;;;;;;36.70;17.20;;;;;;;3.29;77.28;96232.71;435242;1254;99301;-40
2023/01/17 15:52:14;;;;;;;41.20;19.70;;;;;;;2.96;77.33;96227.26;435279;1258;111297;-41
2023/01/17 16:02:42;;;;;;;56.60;25.40;;;;;;;2.54;77.25;96238.16;435225;1256;108256;-39
2023/01/17 16:12:52;;;;;;;53.70;26.00;;;;;;;2.10;77.33;96228.57;435333;1253;99231;-40
2023/01/17 16:23:00;;;;;;;101.60;42.10;;;;;;;1.73;77.57;96223.46;435386;1256;112068;-40
2023/01/17 16:33:09;;;;;;;50.90;27.80;;;;;;;1.55;77.71;96211.30;435278;1254;108232;-41
2023/01/17 16:43:19;;;;;;;65.20;30.80;;;;;;;1.52;77.94;96200.90;435196;1254;98291;-41
2023/01/17 16:53:28;;;;;;;103.40;46.30;;;;;;;1.55;78.10;96179.37;435246;1257;112047;-39
2023/01/17 17:03:35;;;;;;;94.20;44.00;;;;;;;1.37;78.19;96187.56;435250;1254;108406;-41
2023/01/17 17:13:41;;;;;;;98.60;42.30;;;;;;;0.95;78.29;96193.02;435236;1256;99243;-40
2023/01/17 17:23:55;;;;;;;99.80;45.50;;;;;;;0.75;78.57;96194.92;435388;1252;112158;-40
2023/01/17 17:34:02;;;;;;;75.10;34.50;;;;;;;0.79;78.83;96183.20;435252;1253;108779;-41
2023/01/17 17:44:10;;;;;;;68.90;38.70;;;;;;;0.86;79.01;96190.10;435228;1252;99234;-41
2023/01/17 17:54:18;;;;;;;71.20;38.90;;;;;;;0.95;78.96;96192.19;435274;1252;107616;-42
2023/01/17 18:04:24;;;;;;;84.40;40.30;;;;;;;0.99;79.48;96191.08;435336;1254;98811;-39
2023/01/17 18:14:31;;;;;;;73.80;35.50;;;;;;;0.95;79.51;96200.15;435337;1256;112944;-42
2023/01/17 18:24:38;;;;;;;69.20;32.50;;;;;;;0.99;79.83;96216.02;435291;1256;108045;-41
2023/01/17 18:34:44;;;;;;;70.90;35.90;;;;;;;1.10;79.88;96235.11;435314;1252;99241;-41
2023/01/17 18:44:51;;;;;;;55.30;32.10;;;;;;;1.16;79.67;96253.05;435285;1256;111867;-41
2023/01/17 18:54:59;;;;;;;73.40;36.20;;;;;;;1.29;79.75;96259.16;435176;1256;107593;-41
2023/01/17 19:05:10;;;;;;;105.10;47.50;;;;;;;1.39;79.92;96271.54;435337;1252;99250;-40
2023/01/17 19:15:18;;;;;;;107.30;50.80;;;;;;;1.34;79.89;96279.52;435286;1256;109393;-40
2023/01/17 19:25:25;;;;;;;136.40;60.90;;;;;;;1.13;79.77;96283.75;435153;1256;99314;-41
2023/01/17 19:35:31;;;;;;;147.50;67.60;;;;;;;0.80;79.97;96280.14;435313;1256;111796;-40
2023/01/17 19:45:38;;;;;;;154.40;70.20;;;;;;;0.72;80.41;96274.23;435305;1253;109439;-41
2023/01/17 19:55:46;;;;;;;139.10;65.50;;;;;;;0.46;80.22;96254.34;435239;1256;99212;-42
2023/01/17 20:05:58;;;;;;;145.50;68.40;;;;;;;0.26;80.24;96236.59;435152;1253;109057;-40
2023/01/17 20:16:08;;;;;;;108.90;56.00;;;;;;;0.23;80.43;96226.05;435208;1256;98860;-41
2023/01/17 20:26:18;;;;;;;143.90;62.40;;;;;;;0.29;80.57;96228.81;435286;1256;111844;-40
2023/01/17 20:36:27;;;;;;;155.70;66.50;;;;;;;0.28;80.79;96220.72;435239;1256;107432;-40
2023/01/17 20:46:39;;;;;;;162.20;69.60;;;;;;;0.08;80.84;96210.45;435263;1252;98388;-40
2023/01/17 20:56:47;;;;;;;175.50;77.70;;;;;;;-0.22;80.96;96200.65;435304;1253;107991;-45
2023/01/17 21:06:56;;;;;;;171.50;76.40;;;;;;;-0.39;81.13;96177.39;435235;1256;99144;-40
2023/01/17 21:17:03;;;;;;;119.30;68.90;;;;;;;-0.45;81.30;96173.91;435384;1253;111201;-41
2023/01/17 21:27:11;;;;;;;136.90;70.50;;;;;;;-0.15;81.64;96182.80;435139;1256;107743;-41
2023/01/17 21:37:19;;;;;;;145.30;68.20;;;;;;;-0.05;81.41;96184.84;435248;1254;99255;-40
2023/01/17 21:47:26;;;;;;;214.60;93.40;;;;;;;-0.08;81.60;96186.69;435309;1256;109417;-41
2023/01/17 22:08:16;;;;;;;85.50;37.40;;;;;;;0.20;82.31;96193.92;435407;1253;111998;-40
2023/01/17 22:28:30;;;;;;;69.40;38.10;;;;;;;0.56;82.30;96197.86;435342;1254;97942;-40
2023/01/17 22:38:38;;;;;;;64.60;30.60;;;;;;;0.79;82.22;96174.04;435260;1256;114051;-41
2023/01/17 22:48:45;;;;;;;147.60;58.80;;;;;;;0.97;82.32;96162.72;435312;1256;108008;-42
2023/01/17 22:58:53;;;;;;;105.60;51.70;;;;;;;0.85;82.13;96155.13;435298;1253;98572;-40
2023/01/17 23:09:03;;;;;;;89.40;45.70;;;;;;;0.70;82.38;96147.17;435321;1254;110795;-40
2023/01/17 23:29:31;;;;;;;73.80;40.60;;;;;;;0.78;82.74;96119.98;435201;1253;99270;-40
2023/01/17 23:39:38;;;;;;;50.80;25.90;;;;;;;0.95;82.72;96100.65;435184;1253;111953;-39
2023/01/17 23:49:47;;;;;;;63.80;32.40;;;;;;;1.05;82.84;96085.70;435242;1253;108404;-40
2023/01/17 23:59:54;;;;;;;80.80;41.30;;;;;;;1.02;82.86;96087.38;435300;1254;99227;-41
